createdAt,value
2023-01-25T00:00:01.219Z,100233.88
2023-01-25T00:02:28.413Z,100241.97
2023-01-25T00:04:55.047Z,100236.16
2023-01-25T00:07:21.541Z,100232.91
2023-01-25T00:09:48.081Z,100243.41
2023-01-25T00:12:14.753Z,100238.09
2023-01-25T00:14:41.450Z,100230.13
2023-01-25T00:17:08.019Z,100230.47
2023-01-25T00:19:34.552Z,100227.44
2023-01-25T00:22:01.047Z,100222.72
2023-01-25T00:24:27.658Z,100228.31
2023-01-25T00:26:54.255Z,100219.06
2023-01-25T00:29:20.754Z,100220.28
2023-01-25T00:32:01.928Z,100207.34
2023-01-25T00:34:29.837Z,100209.53
2023-01-25T00:37:01.478Z,100203.22
2023-01-25T00:39:28.646Z,100201.16
2023-01-25T00:41:55.634Z,100200.53
2023-01-25T00:44:23.245Z,100195.16
2023-01-25T00:46:49.826Z,100190.91
2023-01-25T00:49:22.044Z,100190.16
2023-01-25T00:51:49.460Z,100188.28
2023-01-25T00:54:16.470Z,100189.88
2023-01-25T00:56:44.297Z,100188.44
2023-01-25T00:59:11.408Z,100190.88
2023-01-25T01:01:40.188Z,100184.50
2023-01-25T01:04:07.043Z,100179.53
2023-01-25T01:06:40.986Z,100175.47
2023-01-25T01:09:11.782Z,100180.34
2023-01-25T01:11:38.321Z,100179.81
2023-01-25T01:14:04.967Z,100177.81
2023-01-25T01:16:31.616Z,100172.03
2023-01-25T01:18:58.186Z,100175.72
2023-01-25T01:21:25.133Z,100177.31
2023-01-25T01:23:51.685Z,100178.97
2023-01-25T01:26:21.642Z,100174.94
2023-01-25T01:28:49.802Z,100180.47
2023-01-25T01:31:20.545Z,100178.38
2023-01-25T01:34:19.893Z,100183.19
2023-01-25T01:36:46.707Z,100178.97
2023-01-25T01:39:13.508Z,100177.81
2023-01-25T01:41:40.314Z,100182.06
2023-01-25T01:44:17.122Z,100179.94
2023-01-25T01:46:52.766Z,100185.94
2023-01-25T01:49:25.289Z,100183.25
2023-01-25T01:52:10.983Z,100180.78
2023-01-25T01:54:47.019Z,100185.13
2023-01-25T01:57:18.877Z,100178.84
2023-01-25T01:59:54.162Z,100171.63
2023-01-25T02:02:22.283Z,100165.59
2023-01-25T02:04:49.923Z,100160.50
2023-01-25T02:07:34.721Z,100161.63
2023-01-25T02:10:03.585Z,100159.63
2023-01-25T02:12:31.849Z,100156.69
2023-01-25T02:14:59.661Z,100145.81
2023-01-25T02:17:35.398Z,100149.69
2023-01-25T02:20:13.059Z,100151.88
2023-01-25T02:23:01.565Z,100151.88
2023-01-25T02:25:28.994Z,100143.50
2023-01-25T02:28:01.051Z,100148.31
2023-01-25T02:30:28.519Z,100146.47
2023-01-25T02:32:55.412Z,100144.16
2023-01-25T02:35:37.464Z,100140.91
2023-01-25T02:38:05.562Z,100145.72
2023-01-25T02:40:38.466Z,100152.00
2023-01-25T02:43:05.023Z,100149.72
2023-01-25T02:45:31.877Z,100157.47
2023-01-25T02:47:58.423Z,100155.94
2023-01-25T02:50:24.957Z,100144.75
2023-01-25T02:52:51.463Z,100153.09
2023-01-25T02:55:18.717Z,100153.44
2023-01-25T02:57:46.463Z,100151.72
2023-01-25T03:00:15.392Z,100146.03
2023-01-25T03:02:43.947Z,100148.47
2023-01-25T03:05:11.169Z,100146.97
2023-01-25T03:07:38.415Z,100140.72
2023-01-25T03:10:05.465Z,100141.19
2023-01-25T03:12:34.448Z,100145.63
2023-01-25T03:15:00.985Z,100139.56
2023-01-25T03:17:27.600Z,100133.19
2023-01-25T03:19:54.322Z,100139.28
2023-01-25T03:22:21.487Z,100141.38
2023-01-25T03:24:49.559Z,100143.47
2023-01-25T03:27:18.490Z,100134.81
2023-01-25T03:30:09.439Z,100133.25
2023-01-25T03:32:36.090Z,100134.16
2023-01-25T03:35:08.088Z,100138.03
2023-01-25T03:37:34.852Z,100133.09
2023-01-25T03:40:03.272Z,100133.44
2023-01-25T03:42:30.961Z,100122.75
2023-01-25T03:44:58.513Z,100118.38
2023-01-25T03:47:25.532Z,100126.00
2023-01-25T03:49:52.594Z,100126.44
2023-01-25T03:52:19.489Z,100124.47
2023-01-25T03:54:47.035Z,100122.41
2023-01-25T03:57:14.081Z,100122.88
2023-01-25T03:59:51.035Z,100115.22
2023-01-25T04:02:17.705Z,100118.94
2023-01-25T04:04:44.844Z,100118.06
2023-01-25T04:07:12.620Z,100118.88
2023-01-25T04:09:40.625Z,100122.84
2023-01-25T04:12:08.990Z,100121.91
2023-01-25T04:14:44.257Z,100124.53
2023-01-25T04:17:15.227Z,100124.38
2023-01-25T04:20:08.513Z,100119.88
2023-01-25T04:22:39.188Z,100111.88
2023-01-25T04:25:08.077Z,100118.72
2023-01-25T04:27:35.106Z,100113.81
2023-01-25T04:30:09.739Z,100108.78
2023-01-25T04:32:37.495Z,100106.75
2023-01-25T04:35:12.656Z,100109.38
2023-01-25T04:37:39.298Z,100098.78
2023-01-25T04:40:06.627Z,100099.56
2023-01-25T04:42:39.882Z,100096.19
2023-01-25T04:45:07.647Z,100100.81
2023-01-25T04:47:35.044Z,100093.56
2023-01-25T04:50:06.377Z,100095.91
2023-01-25T04:52:33.988Z,100098.06
2023-01-25T04:55:00.712Z,100099.44
2023-01-25T04:57:29.013Z,100099.59
2023-01-25T04:59:55.569Z,100097.19
2023-01-25T05:02:23.528Z,100091.31
2023-01-25T05:04:50.109Z,100101.88
2023-01-25T05:07:18.916Z,100102.94
2023-01-25T05:09:45.496Z,100096.50
2023-01-25T05:12:13.748Z,100100.59
2023-01-25T05:14:52.548Z,100082.69
2023-01-25T05:17:20.716Z,100088.66
2023-01-25T05:19:47.594Z,100089.81
2023-01-25T05:22:18.391Z,100083.09
2023-01-25T05:24:48.806Z,100074.47
2023-01-25T05:27:19.237Z,100076.19
2023-01-25T05:29:55.690Z,100075.06
2023-01-25T05:32:33.298Z,100067.00
2023-01-25T05:35:00.915Z,100076.28
2023-01-25T05:37:27.948Z,100063.97
2023-01-25T05:40:01.050Z,100061.25
2023-01-25T05:42:28.998Z,100071.47
2023-01-25T05:44:56.002Z,100070.09
2023-01-25T05:47:23.582Z,100069.44
2023-01-25T05:49:50.196Z,100064.81
2023-01-25T05:52:24.198Z,100065.41
2023-01-25T05:54:51.284Z,100069.75
2023-01-25T05:57:17.941Z,100063.69
2023-01-25T05:59:44.839Z,100063.78
2023-01-25T06:02:15.116Z,100058.66
2023-01-25T06:04:43.000Z,100052.78
2023-01-25T06:07:10.519Z,100050.53
2023-01-25T06:09:37.524Z,100046.56
2023-01-25T06:12:06.071Z,100048.94
2023-01-25T06:14:32.873Z,100050.91
2023-01-25T06:17:00.962Z,100046.63
2023-01-25T06:19:47.753Z,100040.81
2023-01-25T06:22:35.196Z,100039.78
2023-01-25T06:25:01.726Z,100043.22
2023-01-25T06:27:28.493Z,100049.34
2023-01-25T06:29:55.004Z,100048.13
2023-01-25T06:32:21.841Z,100045.53
2023-01-25T06:34:48.370Z,100045.78
2023-01-25T06:37:22.849Z,100046.84
2023-01-25T06:39:50.131Z,100049.06
2023-01-25T06:42:16.625Z,100046.03
2023-01-25T06:44:43.137Z,100046.00
2023-01-25T06:47:09.736Z,100054.63
2023-01-25T06:49:36.202Z,100047.66
2023-01-25T06:52:02.945Z,100047.44
2023-01-25T06:54:29.508Z,100047.19
2023-01-25T06:56:56.002Z,100051.66
2023-01-25T06:59:22.670Z,100047.56
2023-01-25T07:01:50.145Z,100046.34
2023-01-25T07:04:16.782Z,100050.94
2023-01-25T07:06:43.501Z,100042.25
2023-01-25T07:09:12.651Z,100052.69
2023-01-25T07:11:39.471Z,100047.44
2023-01-25T07:14:06.560Z,100049.03
2023-01-25T07:16:36.991Z,100050.66
2023-01-25T07:19:05.241Z,100056.53
2023-01-25T07:21:31.957Z,100061.63
2023-01-25T07:24:03.768Z,100055.34
2023-01-25T07:26:31.405Z,100048.16
2023-01-25T07:28:59.307Z,100049.50
2023-01-25T07:31:27.043Z,100057.81
2023-01-25T07:33:57.171Z,100063.06
2023-01-25T07:36:24.527Z,100055.00
2023-01-25T07:38:56.071Z,100061.72
2023-01-25T07:41:23.746Z,100054.28
2023-01-25T07:43:52.092Z,100052.97
2023-01-25T07:46:29.397Z,100051.16
2023-01-25T07:48:58.237Z,100048.00
2023-01-25T07:51:30.113Z,100049.09
2023-01-25T07:54:02.441Z,100051.72
2023-01-25T07:56:34.652Z,100050.03
2023-01-25T07:59:05.314Z,100049.66
2023-01-25T08:01:34.167Z,100045.97
2023-01-25T08:04:01.979Z,100052.91
2023-01-25T08:06:35.731Z,100048.78
2023-01-25T08:09:14.886Z,100042.25
2023-01-25T08:11:41.997Z,100051.31
2023-01-25T08:14:09.095Z,100051.81
2023-01-25T08:16:35.715Z,100045.53
2023-01-25T08:19:03.540Z,100044.28
2023-01-25T08:21:32.910Z,100040.31
2023-01-25T08:24:01.258Z,100050.59
2023-01-25T08:26:28.855Z,100044.84
2023-01-25T08:28:55.843Z,100041.38
2023-01-25T08:31:28.007Z,100038.75
2023-01-25T08:33:54.914Z,100044.25
2023-01-25T08:36:24.091Z,100037.28
2023-01-25T08:38:57.932Z,100030.97
2023-01-25T08:41:25.615Z,100029.28
2023-01-25T08:43:54.235Z,100035.03
2023-01-25T08:46:21.924Z,100035.41
2023-01-25T08:48:48.956Z,100032.81
2023-01-25T08:51:16.903Z,100029.78
2023-01-25T08:53:43.474Z,100030.66
2023-01-25T08:56:15.150Z,100041.72
2023-01-25T08:58:44.548Z,100026.94
2023-01-25T09:01:13.961Z,100034.84
2023-01-25T09:03:45.872Z,100028.44
2023-01-25T09:06:13.685Z,100022.88
2023-01-25T09:08:40.576Z,100017.16
2023-01-25T09:11:10.654Z,100024.91
2023-01-25T09:13:37.365Z,100024.78
2023-01-25T09:16:10.380Z,100030.09
2023-01-25T09:18:38.546Z,100028.06
2023-01-25T09:21:10.440Z,100024.03
2023-01-25T09:23:50.492Z,100028.22
2023-01-25T09:26:24.888Z,100031.16
2023-01-25T09:28:53.684Z,100022.81
2023-01-25T09:31:23.768Z,100031.16
2023-01-25T09:33:59.597Z,100027.56
2023-01-25T09:36:26.335Z,100020.88
2023-01-25T09:38:53.325Z,100020.88
2023-01-25T09:41:47.816Z,100017.78
2023-01-25T09:44:29.780Z,100013.75
2023-01-25T09:47:01.576Z,100011.81
2023-01-25T09:50:13.733Z,100018.78
2023-01-25T09:52:54.027Z,100019.41
2023-01-25T09:55:24.422Z,100020.03
2023-01-25T09:57:54.030Z,100020.44
2023-01-25T10:00:29.617Z,100016.00
2023-01-25T10:03:11.284Z,100011.81
2023-01-25T10:05:45.740Z,100006.53
2023-01-25T10:08:28.223Z,100006.69
2023-01-25T10:11:21.119Z,100005.44
2023-01-25T10:13:48.844Z,100014.97
2023-01-25T10:16:26.713Z,100007.13
2023-01-25T10:19:05.493Z,100001.34
2023-01-25T10:21:45.744Z,99995.31
2023-01-25T10:24:24.842Z,99992.94
2023-01-25T10:27:12.548Z,99995.63
2023-01-25T10:29:39.202Z,99997.53
2023-01-25T10:32:14.605Z,99985.69
2023-01-25T10:34:56.605Z,99985.22
2023-01-25T10:37:33.139Z,99977.06
2023-01-25T10:40:11.877Z,99974.47
2023-01-25T10:42:43.570Z,99961.28
2023-01-25T10:45:14.811Z,99957.75
2023-01-25T10:47:49.808Z,99952.50
2023-01-25T10:50:46.203Z,99943.69
2023-01-25T10:53:35.340Z,99947.94
2023-01-25T10:56:11.241Z,99948.03
2023-01-25T10:58:41.213Z,99936.63
2023-01-25T11:01:12.567Z,99930.34
2023-01-25T11:03:46.449Z,99929.03
2023-01-25T11:06:13.111Z,99924.69
2023-01-25T11:08:43.088Z,99917.00
2023-01-25T11:11:24.421Z,99908.00
2023-01-25T11:13:52.057Z,99910.22
2023-01-25T11:16:31.895Z,99908.09
2023-01-25T11:19:00.469Z,99909.84
2023-01-25T11:21:29.530Z,99910.78
2023-01-25T11:23:59.211Z,99906.78
2023-01-25T11:26:26.246Z,99901.78
2023-01-25T11:29:16.752Z,99895.66
2023-01-25T11:31:46.459Z,99887.69
2023-01-25T11:34:19.317Z,99876.84
2023-01-25T11:37:04.690Z,99886.09
2023-01-25T11:39:53.101Z,99887.03
2023-01-25T11:42:31.964Z,99880.09
2023-01-25T11:45:13.964Z,99860.16
2023-01-25T11:47:40.575Z,99855.41
2023-01-25T11:50:13.833Z,99858.75
2023-01-25T11:52:52.572Z,99848.94
2023-01-25T11:55:22.249Z,99838.75
2023-01-25T11:58:07.529Z,99844.78
2023-01-25T12:00:43.194Z,99835.78
2023-01-25T12:03:37.256Z,99825.00
2023-01-25T12:06:22.915Z,99834.53
2023-01-25T12:09:06.609Z,99833.84
2023-01-25T12:11:42.245Z,99819.66
2023-01-25T12:14:38.635Z,99818.72
2023-01-25T12:17:26.659Z,99811.31
2023-01-25T12:20:20.868Z,99809.56
2023-01-25T12:23:09.669Z,99800.47
2023-01-25T12:25:52.521Z,99794.56
2023-01-25T12:28:31.944Z,99787.72
2023-01-25T12:31:12.891Z,99785.66
2023-01-25T12:33:52.546Z,99786.38
2023-01-25T12:36:43.822Z,99783.69
2023-01-25T12:39:21.943Z,99773.34
2023-01-25T12:42:12.780Z,99766.91
2023-01-25T12:44:45.905Z,99767.28
2023-01-25T12:47:36.269Z,99765.72
2023-01-25T12:50:21.215Z,99761.63
2023-01-25T12:53:07.379Z,99754.72
2023-01-25T12:55:33.908Z,99750.47
2023-01-25T12:58:29.413Z,99750.59
2023-01-25T13:01:03.008Z,99743.56
2023-01-25T13:03:48.531Z,99733.44
2023-01-25T13:06:25.389Z,99724.97
2023-01-25T13:09:01.705Z,99719.91
2023-01-25T13:11:38.827Z,99718.78
2023-01-25T13:14:20.635Z,99714.41
2023-01-25T13:17:01.422Z,99718.69
2023-01-25T13:19:36.068Z,99715.09
2023-01-25T13:22:02.729Z,99706.97
2023-01-25T13:24:32.090Z,99710.00
2023-01-25T13:27:22.119Z,99706.59
2023-01-25T13:29:55.669Z,99701.41
2023-01-25T13:32:25.188Z,99696.94
2023-01-25T13:34:54.930Z,99696.94
2023-01-25T13:37:29.092Z,99693.91
2023-01-25T13:40:19.943Z,99690.28
2023-01-25T13:43:00.489Z,99682.00
2023-01-25T13:45:27.555Z,99665.16
2023-01-25T13:48:22.316Z,99666.22
2023-01-25T13:50:58.372Z,99666.91
2023-01-25T13:53:33.280Z,99673.19
2023-01-25T13:56:00.341Z,99668.59
2023-01-25T13:58:36.416Z,99665.34
2023-01-25T14:01:06.457Z,99659.00
2023-01-25T14:03:42.698Z,99659.47
2023-01-25T14:06:17.560Z,99661.69
2023-01-25T14:08:46.405Z,99663.25
2023-01-25T14:11:25.663Z,99656.81
2023-01-25T14:14:14.213Z,99652.44
2023-01-25T14:16:40.784Z,99655.25
2023-01-25T14:19:24.951Z,99646.03
2023-01-25T14:22:21.160Z,99650.72
2023-01-25T14:25:04.694Z,99639.91
2023-01-25T14:27:31.633Z,99638.66
2023-01-25T14:29:58.221Z,99638.72
2023-01-25T14:32:27.335Z,99623.88
2023-01-25T14:34:53.847Z,99623.25
2023-01-25T14:37:22.240Z,99619.50
2023-01-25T14:39:51.102Z,99628.00
2023-01-25T14:42:19.045Z,99620.47
2023-01-25T14:44:46.186Z,99617.53
2023-01-25T14:47:32.037Z,99606.16
2023-01-25T14:50:33.097Z,99613.34
2023-01-25T14:53:25.043Z,99611.50
2023-01-25T14:55:51.947Z,99605.03
2023-01-25T14:58:22.817Z,99603.34
2023-01-25T15:00:53.820Z,99604.34
2023-01-25T15:03:22.608Z,99600.09
2023-01-25T15:05:49.469Z,99593.44
2023-01-25T15:08:29.000Z,99594.31
2023-01-25T15:10:58.031Z,99586.34
2023-01-25T15:13:27.288Z,99576.69
2023-01-25T15:16:04.044Z,99569.84
2023-01-25T15:18:51.735Z,99573.78
2023-01-25T15:21:40.145Z,99570.09
2023-01-25T15:24:12.246Z,99577.56
2023-01-25T15:26:39.181Z,99566.81
2023-01-25T15:29:14.090Z,99558.28
2023-01-25T15:31:41.983Z,99559.94
2023-01-25T15:34:17.649Z,99558.22
2023-01-25T15:36:44.270Z,99563.25
2023-01-25T15:39:16.224Z,99559.16
2023-01-25T15:41:43.341Z,99547.13
2023-01-25T15:44:10.850Z,99548.19
2023-01-25T15:46:41.702Z,99549.28
2023-01-25T15:49:13.785Z,99551.59
2023-01-25T15:51:40.471Z,99554.34
2023-01-25T15:54:07.559Z,99548.06
2023-01-25T15:56:37.203Z,99540.16
2023-01-25T15:59:09.238Z,99537.97
2023-01-25T16:01:35.924Z,99532.91
2023-01-25T16:04:02.626Z,99533.44
2023-01-25T16:06:42.849Z,99525.78
2023-01-25T16:09:15.475Z,99529.03
2023-01-25T16:11:42.200Z,99528.13
2023-01-25T16:14:09.074Z,99531.25
2023-01-25T16:16:40.871Z,99531.16
2023-01-25T16:19:07.582Z,99527.88
2023-01-25T16:21:34.153Z,99530.84
2023-01-25T16:24:00.795Z,99534.78
2023-01-25T16:26:28.967Z,99527.97
2023-01-25T16:28:56.018Z,99525.63
2023-01-25T16:31:32.534Z,99532.06
2023-01-25T16:34:01.061Z,99534.97
2023-01-25T16:36:28.176Z,99531.22
2023-01-25T16:38:55.123Z,99535.22
2023-01-25T16:41:21.798Z,99534.97
2023-01-25T16:43:49.346Z,99536.28
2023-01-25T16:46:17.572Z,99536.38
2023-01-25T16:48:45.885Z,99524.84
2023-01-25T16:51:19.988Z,99530.53
2023-01-25T16:53:48.446Z,99531.59
2023-01-25T16:56:20.413Z,99532.75
2023-01-25T16:58:47.795Z,99530.22
2023-01-25T17:01:16.235Z,99523.66
2023-01-25T17:03:42.819Z,99520.47
2023-01-25T17:06:35.485Z,99522.44
2023-01-25T17:09:20.657Z,99509.41
2023-01-25T17:11:48.555Z,99518.81
2023-01-25T17:14:17.770Z,99517.53
2023-01-25T17:16:45.088Z,99517.78
2023-01-25T17:19:16.949Z,99515.28
2023-01-25T17:21:44.833Z,99507.19
2023-01-25T17:24:16.989Z,99507.22
2023-01-25T17:26:43.773Z,99512.50
2023-01-25T17:29:10.646Z,99511.19
2023-01-25T17:31:38.032Z,99502.75
2023-01-25T17:34:07.548Z,99493.91
2023-01-25T17:36:34.502Z,99500.53
2023-01-25T17:39:08.226Z,99498.13
2023-01-25T17:41:35.119Z,99497.53
2023-01-25T17:44:02.161Z,99497.50
2023-01-25T17:46:33.125Z,99500.28
2023-01-25T17:49:02.306Z,99499.97
2023-01-25T17:51:29.156Z,99493.72
2023-01-25T17:53:55.743Z,99489.03
2023-01-25T17:56:22.399Z,99487.44
2023-01-25T17:58:50.081Z,99482.50
2023-01-25T18:01:18.100Z,99486.69
2023-01-25T18:03:46.289Z,99478.84
2023-01-25T18:06:16.740Z,99480.19
2023-01-25T18:08:45.989Z,99466.34
2023-01-25T18:11:18.120Z,99465.84
2023-01-25T18:13:50.063Z,99466.56
2023-01-25T18:16:18.270Z,99459.81
2023-01-25T18:18:45.976Z,99457.56
2023-01-25T18:21:22.169Z,99453.31
2023-01-25T18:23:48.924Z,99448.03
2023-01-25T18:26:21.818Z,99440.25
2023-01-25T18:28:49.765Z,99445.53
2023-01-25T18:31:17.917Z,99443.31
2023-01-25T18:33:44.858Z,99443.25
2023-01-25T18:36:16.583Z,99444.84
2023-01-25T18:38:43.242Z,99436.69
2023-01-25T18:41:09.862Z,99440.50
2023-01-25T18:43:36.664Z,99435.38
2023-01-25T18:46:04.555Z,99434.34
2023-01-25T18:48:31.623Z,99441.66
2023-01-25T18:51:08.509Z,99435.44
2023-01-25T18:53:37.482Z,99424.34
2023-01-25T18:56:06.072Z,99424.63
2023-01-25T18:58:34.287Z,99422.09
2023-01-25T19:01:10.364Z,99419.38
2023-01-25T19:03:37.328Z,99425.22
2023-01-25T19:06:04.726Z,99424.19
2023-01-25T19:08:36.356Z,99421.00
2023-01-25T19:11:05.976Z,99410.03
2023-01-25T19:13:37.784Z,99412.84
2023-01-25T19:16:08.731Z,99406.78
2023-01-25T19:18:37.609Z,99405.28
2023-01-25T19:21:08.874Z,99405.22
2023-01-25T19:23:37.810Z,99402.22
2023-01-25T19:26:05.901Z,99395.94
2023-01-25T19:28:34.644Z,99397.50
2023-01-25T19:31:08.076Z,99393.31
2023-01-25T19:33:35.231Z,99396.00
2023-01-25T19:36:06.719Z,99394.47
2023-01-25T19:38:37.589Z,99393.94
2023-01-25T19:41:10.368Z,99393.06
2023-01-25T19:43:36.957Z,99386.16
2023-01-25T19:46:08.813Z,99387.03
2023-01-25T19:48:36.069Z,99380.44
2023-01-25T19:51:15.771Z,99383.84
2023-01-25T19:53:47.631Z,99378.94
2023-01-25T19:56:16.763Z,99380.59
2023-01-25T19:58:48.244Z,99373.72
2023-01-25T20:01:17.071Z,99362.84
2023-01-25T20:03:43.855Z,99362.34
2023-01-25T20:06:11.972Z,99356.13
2023-01-25T20:08:40.878Z,99354.44
2023-01-25T20:11:12.253Z,99366.16
2023-01-25T20:13:39.593Z,99347.91
2023-01-25T20:16:07.045Z,99352.91
2023-01-25T20:18:33.870Z,99350.69
2023-01-25T20:21:02.864Z,99341.81
2023-01-25T20:23:34.861Z,99334.97
2023-01-25T20:26:04.887Z,99343.81
2023-01-25T20:28:35.802Z,99346.00
2023-01-25T20:31:04.430Z,99340.78
2023-01-25T20:33:34.415Z,99338.00
2023-01-25T20:36:05.675Z,99345.28
2023-01-25T20:38:33.867Z,99342.63
2023-01-25T20:41:01.977Z,99344.38
2023-01-25T20:43:29.607Z,99341.38
2023-01-25T20:45:56.685Z,99347.91
2023-01-25T20:48:24.361Z,99339.94
2023-01-25T20:50:51.046Z,99334.34
2023-01-25T20:53:18.275Z,99337.69
2023-01-25T20:55:45.209Z,99332.59
2023-01-25T20:58:11.770Z,99339.22
2023-01-25T21:00:38.371Z,99333.09
2023-01-25T21:03:04.954Z,99338.88
2023-01-25T21:05:31.483Z,99337.13
2023-01-25T21:07:57.997Z,99339.72
2023-01-25T21:10:24.552Z,99333.72
2023-01-25T21:12:51.125Z,99330.88
2023-01-25T21:15:17.863Z,99334.16
2023-01-25T21:17:44.521Z,99323.47
2023-01-25T21:20:11.206Z,99321.31
2023-01-25T21:22:37.767Z,99313.84
2023-01-25T21:25:04.665Z,99311.66
2023-01-25T21:27:31.227Z,99311.25
2023-01-25T21:29:58.052Z,99312.59
2023-01-25T21:32:25.552Z,99309.50
2023-01-25T21:34:52.199Z,99314.06
2023-01-25T21:37:18.798Z,99315.31
2023-01-25T21:39:45.370Z,99309.28
2023-01-25T21:42:11.864Z,99302.97
2023-01-25T21:44:57.129Z,99303.88
2023-01-25T21:47:30.316Z,99296.09
2023-01-25T21:50:15.987Z,99294.75
2023-01-25T21:52:42.562Z,99287.50
2023-01-25T21:55:09.816Z,99285.97
2023-01-25T21:57:36.443Z,99289.69
2023-01-25T22:00:05.365Z,99288.94
2023-01-25T22:02:32.024Z,99276.31
2023-01-25T22:04:58.580Z,99275.31
2023-01-25T22:07:25.175Z,99278.31
2023-01-25T22:09:51.889Z,99279.09
2023-01-25T22:12:18.407Z,99264.28
2023-01-25T22:14:44.942Z,99269.03
2023-01-25T22:17:11.483Z,99262.41
2023-01-25T22:19:38.021Z,99262.53
2023-01-25T22:22:04.678Z,99258.03
2023-01-25T22:24:31.264Z,99256.41
2023-01-25T22:27:04.726Z,99257.03
2023-01-25T22:29:33.951Z,99244.16
2023-01-25T22:32:00.500Z,99240.03
2023-01-25T22:34:27.087Z,99235.84
2023-01-25T22:36:53.569Z,99234.41
2023-01-25T22:39:20.117Z,99238.84
2023-01-25T22:41:46.667Z,99235.84
2023-01-25T22:44:14.628Z,99240.72
2023-01-25T22:46:41.169Z,99235.34
2023-01-25T22:49:07.859Z,99220.09
2023-01-25T22:51:34.496Z,99217.94
2023-01-25T22:54:01.058Z,99213.59
2023-01-25T22:56:31.653Z,99206.31
2023-01-25T22:58:59.324Z,99199.59
2023-01-25T23:01:32.299Z,99193.75
2023-01-25T23:03:59.522Z,99199.47
2023-01-25T23:06:31.096Z,99196.66
2023-01-25T23:09:05.878Z,99195.31
2023-01-25T23:11:38.466Z,99183.19
2023-01-25T23:14:25.752Z,99181.97
2023-01-25T23:16:52.518Z,99177.91
2023-01-25T23:19:19.350Z,99185.69
2023-01-25T23:21:45.883Z,99188.41
2023-01-25T23:24:12.676Z,99185.50
2023-01-25T23:26:41.144Z,99191.28
2023-01-25T23:29:12.266Z,99183.63
2023-01-25T23:31:39.084Z,99178.84
2023-01-25T23:34:06.756Z,99172.13
2023-01-25T23:36:35.745Z,99168.00
2023-01-25T23:39:02.941Z,99162.38
2023-01-25T23:41:30.711Z,99162.28
2023-01-25T23:43:58.019Z,99149.31
2023-01-25T23:46:25.370Z,99152.66
2023-01-25T23:48:51.981Z,99154.19
2023-01-25T23:51:18.920Z,99151.81
2023-01-25T23:53:45.889Z,99157.00
2023-01-25T23:56:15.663Z,99157.06
2023-01-25T23:58:42.267Z,99156.50
